Time;durP1;ratioP1;P1;durP2;ratioP2;P2;SDS_P1;SDS_P2;PMS_P1;PMS_P2;Temp;Humidity;BMP_temperature;BMP_pressure;BME280_temperature;BME280_humidity;BME280_pressure;Samples;Min_cycle;Max_cycle;Signal;HPM_P1;HPM_P2
2022/09/02 00:00:44;;;;;;;2.88;1.50;;;25.90;44.60;;;;;;5037636;28;20075;-79
2022/09/02 00:03:12;;;;;;;3.80;1.55;;;25.80;45.10;;;;;;5035459;28;20029;-86
2022/09/02 00:05:37;;;;;;;3.25;1.65;;;25.90;44.70;;;;;;5035638;28;20427;-81
2022/09/02 00:08:04;;;;;;;4.05;1.50;;;25.50;45.70;;;;;;5035204;28;20025;-79
2022/09/02 00:10:31;;;;;;;4.45;1.50;;;25.70;47.40;;;;;;5034130;28;20057;-82
2022/09/02 00:12:57;;;;;;;2.80;1.42;;;26.20;47.00;;;;;;5017608;28;20074;-84
2022/09/02 00:15:23;;;;;;;2.30;1.30;;;26.30;47.90;;;;;;5017570;28;20025;-85
2022/09/02 00:17:48;;;;;;;3.85;1.42;;;26.40;47.30;;;;;;5055098;28;20029;-81
2022/09/02 00:20:14;;;;;;;3.13;1.60;;;25.80;46.00;;;;;;5037246;28;20128;-80
2022/09/02 00:22:40;;;;;;;4.75;1.70;;;25.70;46.50;;;;;;5036995;28;20021;-83
2022/09/02 00:25:07;;;;;;;3.88;1.50;;;25.90;48.00;;;;;;5020019;28;20057;-82
2022/09/02 00:27:33;;;;;;;4.85;1.58;;;25.90;48.70;;;;;;5037251;28;20031;-86
2022/09/02 00:29:58;;;;;;;2.97;1.40;;;25.90;48.40;;;;;;5037287;28;20025;-81
2022/09/02 00:32:24;;;;;;;4.38;1.60;;;25.90;46.20;;;;;;5037134;28;20032;-82
2022/09/02 00:34:50;;;;;;;3.10;1.50;;;25.90;48.20;;;;;;5036774;28;20025;-83
2022/09/02 00:37:16;;;;;;;3.88;1.80;;;26.10;48.30;;;;;;5037065;28;20434;-80
2022/09/02 00:39:44;;;;;;;2.90;1.50;;;25.80;47.60;;;;;;5036908;28;20040;-81
2022/09/02 00:42:10;;;;;;;3.50;1.60;;;25.80;47.30;;;;;;5036635;28;20080;-81
2022/09/02 00:44:36;;;;;;;5.40;1.50;;;26.00;47.80;;;;;;5041229;28;20089;-82
2022/09/02 00:47:02;;;;;;;5.20;1.50;;;26.30;47.10;;;;;;5017098;28;20397;-83
2022/09/02 00:49:32;;;;;;;3.80;1.60;;;26.40;46.80;;;;;;5034260;28;20050;-81
2022/09/02 00:52:05;;;;;;;2.90;1.40;;;26.40;45.60;;;;;;5016943;28;20052;-81
2022/09/02 00:54:35;;;;;;;4.03;1.60;;;26.40;45.50;;;;;;5027558;28;20112;-80
2022/09/02 00:57:06;;;;;;;3.43;1.80;;;26.40;45.90;;;;;;5036472;28;20037;-81
2022/09/02 01:00:00;;;;;;;4.40;1.90;;;26.20;47.00;;;;;;5053827;28;20290;-82
2022/09/02 01:02:28;;;;;;;3.50;1.52;;;25.60;46.50;;;;;;5036482;28;20041;-85
2022/09/02 01:04:55;;;;;;;3.95;1.70;;;25.10;47.00;;;;;;5054386;28;20024;-87
2022/09/02 01:07:22;;;;;;;3.38;1.50;;;24.90;47.50;;;;;;5053597;28;20074;-83
2022/09/02 01:09:50;;;;;;;2.75;1.40;;;24.90;46.00;;;;;;5053702;28;20025;-84
2022/09/02 01:12:16;;;;;;;3.63;1.63;;;24.70;46.30;;;;;;5053246;28;20063;-84
2022/09/02 01:14:41;;;;;;;4.00;1.60;;;24.70;47.40;;;;;;5053957;28;20028;-83
2022/09/02 01:17:08;;;;;;;3.65;1.40;;;24.70;45.60;;;;;;5036189;28;20494;-85
2022/09/02 01:19:43;;;;;;;3.15;1.70;;;24.70;45.10;;;;;;5036147;28;20032;-83
2022/09/02 01:22:22;;;;;;;3.55;1.33;;;24.70;46.80;;;;;;5053054;28;20024;-83
2022/09/02 01:24:48;;;;;;;2.63;1.48;;;24.70;47.20;;;;;;5053975;28;20087;-82
2022/09/02 01:27:17;;;;;;;3.10;1.63;;;24.70;46.30;;;;;;5036200;28;20029;-82
2022/09/02 01:29:44;;;;;;;2.85;1.42;;;24.80;47.70;;;;;;5036301;28;20029;-79
2022/09/02 01:32:10;;;;;;;3.67;1.40;;;24.70;45.10;;;;;;5031048;28;20024;-82
2022/09/02 01:34:36;;;;;;;2.70;1.50;;;24.30;45.30;;;;;;5033976;28;20039;-81
2022/09/02 01:37:02;;;;;;;3.50;1.60;;;24.40;46.10;;;;;;5053943;28;20078;-81
2022/09/02 01:39:27;;;;;;;2.80;1.55;;;24.70;45.20;;;;;;5035949;28;20033;-84
2022/09/02 01:41:53;;;;;;;5.72;1.70;;;24.70;46.20;;;;;;5052552;28;20459;-82
2022/09/02 01:44:19;;;;;;;3.08;1.45;;;24.50;46.70;;;;;;5035781;28;20107;-83
2022/09/02 01:46:46;;;;;;;3.67;1.60;;;24.80;48.40;;;;;;5053728;28;20035;-82
2022/09/02 01:49:11;;;;;;;2.72;1.40;;;24.70;47.40;;;;;;5053355;28;20041;-84
2022/09/02 01:51:37;;;;;;;2.47;1.50;;;24.90;48.80;;;;;;5050476;28;20165;-83
2022/09/02 01:54:03;;;;;;;3.65;1.55;;;25.20;48.20;;;;;;5051878;28;20075;-83
2022/09/02 01:56:29;;;;;;;4.65;1.50;;;25.50;47.70;;;;;;5035888;28;20029;-82
2022/09/02 01:58:54;;;;;;;3.95;1.65;;;25.70;47.50;;;;;;5053029;28;20047;-81
2022/09/02 02:01:20;;;;;;;4.68;1.40;;;25.70;47.90;;;;;;5035543;28;20434;-79
2022/09/02 02:03:46;;;;;;;3.05;1.50;;;25.30;46.00;;;;;;5047576;28;20021;-83
2022/09/02 02:06:15;;;;;;;3.63;1.60;;;24.30;47.20;;;;;;5035303;28;20123;-81
2022/09/02 02:08:41;;;;;;;3.22;1.40;;;24.20;49.30;;;;;;5035585;28;20116;-83
2022/09/02 02:11:08;;;;;;;3.00;1.40;;;24.20;47.60;;;;;;5035651;28;20468;-84
2022/09/02 02:13:34;;;;;;;3.83;1.70;;;24.30;48.50;;;;;;5035495;28;20029;-82
2022/09/02 02:16:00;;;;;;;3.08;1.60;;;24.70;48.60;;;;;;5035616;28;20029;-84
2022/09/02 02:18:26;;;;;;;2.83;1.70;;;24.80;47.00;;;;;;5034771;28;20542;-81
2022/09/02 02:20:52;;;;;;;3.17;1.50;;;24.30;45.20;;;;;;5019216;28;20044;-84
2022/09/02 02:23:18;;;;;;;2.60;1.38;;;23.50;46.80;;;;;;5037470;28;20021;-81
2022/09/02 02:25:44;;;;;;;4.82;1.63;;;22.90;46.30;;;;;;5028415;28;20033;-82
2022/09/02 02:28:10;;;;;;;5.90;1.60;;;22.70;48.60;;;;;;5039579;28;20021;-81
2022/09/02 02:30:35;;;;;;;3.45;1.50;;;23.10;49.90;;;;;;5057339;28;20025;-82
2022/09/02 02:33:01;;;;;;;2.65;1.50;;;23.70;48.80;;;;;;5056615;28;20021;-81
2022/09/02 02:35:27;;;;;;;3.00;1.50;;;24.10;48.80;;;;;;5056989;28;20479;-84
2022/09/02 02:37:53;;;;;;;3.33;1.73;;;24.20;46.50;;;;;;5039369;28;20464;-81
2022/09/02 02:40:22;;;;;;;4.07;1.60;;;23.90;47.10;;;;;;5057023;28;20104;-83
2022/09/02 02:42:49;;;;;;;3.17;1.60;;;23.70;47.50;;;;;;5039350;28;20455;-84
2022/09/02 02:45:15;;;;;;;2.90;1.52;;;23.60;48.90;;;;;;5021363;28;20037;-81
2022/09/02 02:47:42;;;;;;;3.33;1.60;;;23.50;50.80;;;;;;5019250;28;20036;-82
2022/09/02 02:50:10;;;;;;;3.17;1.55;;;23.60;49.10;;;;;;5015544;28;20129;-88
2022/09/02 02:52:39;;;;;;;4.38;1.50;;;23.40;50.30;;;;;;5018422;28;20050;-82
2022/09/02 02:55:06;;;;;;;6.32;1.60;;;23.20;51.60;;;;;;5037123;28;20061;-82
2022/09/02 02:57:33;;;;;;;3.10;1.50;;;23.30;50.90;;;;;;5036778;28;20465;-82
2022/09/02 03:00:09;;;;;;;2.70;1.50;;;23.60;49.10;;;;;;5035545;28;20034;-82
2022/09/02 03:02:35;;;;;;;5.78;1.45;;;24.00;49.20;;;;;;5029095;28;20464;-81
2022/09/02 03:05:04;;;;;;;3.20;1.60;;;23.70;48.60;;;;;;5032235;28;20032;-81
2022/09/02 03:07:29;;;;;;;2.80;1.50;;;24.00;49.70;;;;;;5035387;28;20117;-81
2022/09/02 03:09:55;;;;;;;3.03;1.50;;;24.30;50.10;;;;;;5035298;28;20451;-80
2022/09/02 03:12:22;;;;;;;3.15;1.50;;;24.40;49.00;;;;;;5035313;28;20597;-81
2022/09/02 03:14:48;;;;;;;2.47;1.30;;;24.70;49.40;;;;;;5034130;28;20507;-82
2022/09/02 03:17:14;;;;;;;2.78;1.50;;;24.70;48.20;;;;;;5036267;28;20038;-81
2022/09/02 03:19:40;;;;;;;3.53;1.50;;;24.90;48.20;;;;;;5034809;28;20037;-81
2022/09/02 03:22:05;;;;;;;5.20;1.60;;;25.10;48.90;;;;;;5034746;28;20032;-80
2022/09/02 03:24:31;;;;;;;2.88;1.48;;;25.10;48.20;;;;;;5014890;28;20429;-81
2022/09/02 03:26:57;;;;;;;3.20;1.40;;;24.70;46.80;;;;;;5015117;28;20030;-82
2022/09/02 03:29:22;;;;;;;3.78;1.50;;;24.70;46.90;;;;;;5034980;28;20021;-81
2022/09/02 03:31:48;;;;;;;4.32;1.50;;;24.30;48.50;;;;;;5033637;28;20022;-81
2022/09/02 03:34:14;;;;;;;3.90;1.60;;;24.40;48.60;;;;;;5035867;28;20028;-81
2022/09/02 03:36:40;;;;;;;6.03;1.80;;;24.70;48.50;;;;;;5035829;28;20033;-81
2022/09/02 03:39:07;;;;;;;2.78;1.42;;;24.90;48.50;;;;;;5030576;28;20025;-82
2022/09/02 03:41:33;;;;;;;3.35;1.70;;;24.00;45.00;;;;;;5031645;28;20025;-86
2022/09/02 03:44:00;;;;;;;2.60;1.40;;;23.10;50.10;;;;;;5030387;28;20021;-89
2022/09/02 03:46:26;;;;;;;3.53;1.52;;;23.40;49.20;;;;;;5027335;28;20030;-87
2022/09/02 03:48:52;;;;;;;4.18;1.63;;;22.90;48.10;;;;;;5034705;28;20044;-84
2022/09/02 03:51:25;;;;;;;6.65;1.85;;;23.00;51.50;;;;;;5055678;28;20041;-87
2022/09/02 03:53:50;;;;;;;3.20;1.50;;;23.10;47.00;;;;;;5039104;28;20021;-85
2022/09/02 03:56:18;;;;;;;4.05;1.60;;;22.80;47.80;;;;;;5038247;28;20021;-88
2022/09/02 03:58:45;;;;;;;2.60;1.40;;;22.80;48.20;;;;;;5034351;28;20032;-93
2022/09/02 04:01:17;;;;;;;3.97;1.70;;;23.40;48.70;;;;;;5035028;28;20057;-86
2022/09/02 04:03:43;;;;;;;3.72;1.70;;;23.30;48.30;;;;;;5034646;28;20431;-84
2022/09/02 04:06:10;;;;;;;3.00;1.45;;;23.20;49.60;;;;;;5018528;28;20029;-85
2022/09/02 04:08:37;;;;;;;3.95;1.75;;;23.40;49.90;;;;;;5027640;28;20025;-83
2022/09/02 04:11:12;;;;;;;3.67;1.70;;;23.60;48.90;;;;;;5037308;28;20033;-83
2022/09/02 04:13:38;;;;;;;4.63;1.50;;;23.90;51.00;;;;;;5055360;28;20021;-82
2022/09/02 04:16:16;;;;;;;5.07;1.90;;;24.30;50.50;;;;;;5037387;28;20025;-84
2022/09/02 04:18:42;;;;;;;3.17;1.70;;;24.40;51.00;;;;;;5034797;28;20022;-84
2022/09/02 04:21:08;;;;;;;4.13;1.60;;;24.60;50.20;;;;;;5036564;28;20068;-83
2022/09/02 04:23:36;;;;;;;6.13;1.70;;;24.70;50.30;;;;;;5054958;28;20021;-83
2022/09/02 04:26:10;;;;;;;2.70;1.60;;;24.60;50.20;;;;;;5036147;28;20032;-84
2022/09/02 04:28:36;;;;;;;3.47;1.55;;;24.70;50.40;;;;;;5054432;28;20029;-88
2022/09/02 04:31:08;;;;;;;3.25;1.77;;;24.20;47.70;;;;;;5054794;28;20108;-81
2022/09/02 04:33:34;;;;;;;5.22;1.75;;;23.80;51.80;;;;;;5054192;28;20036;-81
2022/09/02 04:36:02;;;;;;;3.03;1.60;;;24.00;52.20;;;;;;5036441;28;20017;-82
2022/09/02 04:38:28;;;;;;;4.35;1.85;;;24.10;51.60;;;;;;5054768;28;20024;-81
2022/09/02 04:40:53;;;;;;;5.18;1.67;;;23.90;52.10;;;;;;5036844;28;20055;-81
2022/09/02 04:43:19;;;;;;;4.13;1.70;;;23.80;51.80;;;;;;5054507;28;20476;-82
2022/09/02 04:45:46;;;;;;;6.22;1.80;;;23.70;51.50;;;;;;5019953;28;20025;-82
2022/09/02 04:48:12;;;;;;;6.63;1.75;;;23.90;51.30;;;;;;5016888;28;20068;-82
2022/09/02 04:50:39;;;;;;;4.25;1.70;;;24.10;51.30;;;;;;5016557;28;20057;-82
2022/09/02 04:53:05;;;;;;;3.60;1.48;;;24.00;50.80;;;;;;5017242;28;20037;-85
2022/09/02 04:55:31;;;;;;;3.35;1.60;;;23.20;48.90;;;;;;5040810;28;20025;-81
2022/09/02 04:57:58;;;;;;;3.33;1.70;;;22.80;53.00;;;;;;5054345;28;20025;-80
2022/09/02 05:00:24;;;;;;;6.00;1.75;;;23.20;53.70;;;;;;5053781;28;20037;-80
2022/09/02 05:02:52;;;;;;;4.72;1.60;;;23.50;52.30;;;;;;5053474;28;20100;-83
2022/09/02 05:05:18;;;;;;;3.65;1.50;;;24.00;51.30;;;;;;5036375;28;20055;-81
2022/09/02 05:07:44;;;;;;;2.83;1.50;;;24.00;49.00;;;;;;5035005;28;20175;-83
2022/09/02 05:10:12;;;;;;;2.88;1.60;;;24.10;49.40;;;;;;5034507;28;20116;-80
2022/09/02 05:12:39;;;;;;;2.85;1.60;;;24.40;50.50;;;;;;5036118;28;20525;-83
2022/09/02 05:15:05;;;;;;;3.42;1.48;;;24.60;51.20;;;;;;5030148;28;20461;-83
2022/09/02 05:17:35;;;;;;;3.35;1.60;;;24.70;50.40;;;;;;5053587;28;20032;-82
2022/09/02 05:20:03;;;;;;;2.58;1.52;;;24.90;50.70;;;;;;5034246;28;20020;-82
2022/09/02 05:22:30;;;;;;;2.42;1.50;;;25.00;51.40;;;;;;5036196;28;20407;-83
2022/09/02 05:24:56;;;;;;;2.60;1.42;;;25.10;51.10;;;;;;5053990;28;20028;-84
2022/09/02 05:27:22;;;;;;;2.58;1.35;;;25.00;50.60;;;;;;5035210;28;20361;-80
2022/09/02 05:29:48;;;;;;;2.88;1.38;;;25.10;50.20;;;;;;5035540;28;20392;-80
2022/09/02 05:32:15;;;;;;;12.15;7.47;;;25.00;48.40;;;;;;5027449;28;20029;-82
2022/09/02 05:34:40;;;;;;;27.30;16.83;;;25.30;49.10;;;;;;5023894;28;20358;-81
2022/09/02 05:37:06;;;;;;;20.58;12.52;;;25.60;50.30;;;;;;5031878;28;20477;-81
2022/09/02 05:39:32;;;;;;;15.05;8.75;;;25.80;50.80;;;;;;5044192;28;20071;-82
2022/09/02 05:41:58;;;;;;;5.68;2.75;;;25.80;49.70;;;;;;5035942;28;20123;-81
2022/09/02 05:44:24;;;;;;;5.10;2.22;;;24.90;50.00;;;;;;5039196;28;20030;-81
2022/09/02 05:46:50;;;;;;;3.58;1.90;;;24.90;48.70;;;;;;5027707;28;20028;-81
2022/09/02 05:49:16;;;;;;;3.13;1.85;;;25.30;48.60;;;;;;5019075;28;20025;-80
2022/09/02 05:51:46;;;;;;;3.80;1.80;;;25.70;49.60;;;;;;5030921;28;20055;-80
2022/09/02 05:54:19;;;;;;;5.65;1.55;;;25.70;45.60;;;;;;5033200;28;20472;-84
2022/09/02 05:56:48;;;;;;;3.13;1.60;;;25.00;45.00;;;;;;5019837;28;20468;-80
2022/09/02 05:59:14;;;;;;;4.35;1.55;;;24.70;48.70;;;;;;5027559;28;20052;-80
2022/09/02 06:01:40;;;;;;;5.15;1.52;;;25.00;48.60;;;;;;5014685;28;20087;-86
2022/09/02 06:04:06;;;;;;;4.47;1.40;;;25.20;48.80;;;;;;5018873;28;20021;-82
2022/09/02 06:06:33;;;;;;;3.03;1.48;;;25.00;48.20;;;;;;5029918;28;20028;-86
2022/09/02 06:08:59;;;;;;;3.13;1.50;;;25.30;49.40;;;;;;5022498;28;20030;-81
2022/09/02 06:11:27;;;;;;;3.53;1.40;;;25.40;49.20;;;;;;5038174;28;20053;-81
2022/09/02 06:13:54;;;;;;;3.90;1.40;;;25.00;46.00;;;;;;5022044;28;20013;-81
2022/09/02 06:16:21;;;;;;;5.63;1.58;;;24.40;47.70;;;;;;5018865;28;20026;-83
2022/09/02 06:18:47;;;;;;;2.80;1.50;;;24.70;49.00;;;;;;5024856;28;20021;-80
2022/09/02 06:21:14;;;;;;;3.40;1.40;;;25.10;49.00;;;;;;5051880;28;20116;-86
2022/09/02 06:23:40;;;;;;;6.57;1.83;;;25.50;48.00;;;;;;5048014;28;20021;-81
2022/09/02 06:26:08;;;;;;;3.22;1.58;;;25.40;48.00;;;;;;5050841;28;20024;-84
2022/09/02 06:28:35;;;;;;;3.70;1.40;;;24.90;46.20;;;;;;5032626;28;20140;-82
2022/09/02 06:31:09;;;;;;;3.83;1.40;;;24.90;48.70;;;;;;5020175;28;20129;-86
2022/09/02 06:33:36;;;;;;;2.88;1.38;;;24.90;48.60;;;;;;5015698;28;20017;-83
2022/09/02 06:36:06;;;;;;;4.55;1.63;;;24.70;46.30;;;;;;5022559;28;20025;-94
2022/09/02 06:38:36;;;;;;;4.07;1.60;;;24.60;47.90;;;;;;5053406;28;20025;-90
2022/09/02 06:41:02;;;;;;;3.55;1.50;;;24.80;48.90;;;;;;4337239;28;10000680;-80
2022/09/02 06:43:28;;;;;;;3.17;1.42;;;24.70;47.30;;;;;;5025672;28;20539;-83
2022/09/02 06:45:54;;;;;;;2.92;1.45;;;25.10;47.90;;;;;;5031531;28;20033;-83
2022/09/02 06:48:20;;;;;;;3.28;1.42;;;25.20;47.00;;;;;;5024191;28;20048;-86
2022/09/02 06:50:46;;;;;;;3.58;1.58;;;25.50;48.00;;;;;;5024090;28;20072;-79
2022/09/02 06:53:12;;;;;;;2.60;1.30;;;25.50;46.30;;;;;;5014348;28;20477;-82
2022/09/02 06:55:41;;;;;;;3.63;1.75;;;24.70;45.80;;;;;;5031343;28;20472;-80
2022/09/02 06:58:07;;;;;;;2.72;1.40;;;24.70;48.20;;;;;;5030922;28;20054;-93
2022/09/02 07:00:36;;;;;;;3.83;1.48;;;25.20;47.80;;;;;;5018574;28;20036;-79
2022/09/02 07:05:47;;;;;;;3.35;1.70;;;25.90;48.70;;;;;;4699347;28;9999734;-82
2022/09/02 07:08:13;;;;;;;2.42;1.40;;;25.30;46.30;;;;;;5037663;28;20045;-79
2022/09/02 07:10:39;;;;;;;3.25;1.40;;;25.60;46.50;;;;;;5033536;28;20059;-82
2022/09/02 07:13:06;;;;;;;4.07;1.45;;;25.60;45.30;;;;;;5027152;28;20051;-79
2022/09/02 07:15:32;;;;;;;4.20;1.48;;;24.80;48.10;;;;;;5055359;28;20028;-82
2022/09/02 07:17:58;;;;;;;2.38;1.20;;;24.90;47.80;;;;;;5050216;28;20544;-80
2022/09/02 07:20:24;;;;;;;2.40;1.30;;;25.30;46.40;;;;;;5043828;28;20041;-79
2022/09/02 07:22:49;;;;;;;2.30;1.20;;;25.70;46.40;;;;;;5037300;28;20025;-81
2022/09/02 07:25:17;;;;;;;3.75;1.50;;;26.20;45.40;;;;;;5054514;28;20383;-80
2022/09/02 07:27:43;;;;;;;3.08;1.40;;;26.40;46.10;;;;;;5054782;28;20499;-78
2022/09/02 07:30:11;;;;;;;2.90;1.60;;;26.70;45.60;;;;;;5037759;28;20082;-88
2022/09/02 07:32:37;;;;;;;3.60;1.90;;;26.30;44.40;;;;;;5056410;28;20023;-85
2022/09/02 07:35:05;;;;;;;2.67;1.40;;;25.80;45.20;;;;;;5037076;28;20392;-80
2022/09/02 07:37:33;;;;;;;3.05;1.50;;;25.80;46.40;;;;;;5037599;28;20017;-81
2022/09/02 07:39:59;;;;;;;2.50;1.40;;;26.20;46.40;;;;;;5037697;28;20124;-83
2022/09/02 07:42:25;;;;;;;3.78;1.50;;;26.50;44.60;;;;;;5045575;28;20036;-81
2022/09/02 07:44:54;;;;;;;2.35;1.20;;;26.70;46.00;;;;;;5017628;28;20022;-84
2022/09/02 07:47:19;;;;;;;3.03;1.40;;;26.80;45.50;;;;;;5035104;28;20032;-83
2022/09/02 07:49:45;;;;;;;4.07;1.40;;;26.80;46.10;;;;;;5035168;28;20050;-83
2022/09/02 07:52:11;;;;;;;2.72;1.38;;;26.90;46.00;;;;;;5035158;28;20049;-80
2022/09/02 07:54:36;;;;;;;3.08;1.33;;;27.30;45.10;;;;;;5017486;28;20159;-80
2022/09/02 07:57:04;;;;;;;2.83;1.30;;;27.40;44.90;;;;;;5033796;28;20032;-84
2022/09/02 07:59:30;;;;;;;2.95;1.60;;;27.40;45.70;;;;;;5054196;28;20068;-79
2022/09/02 08:01:56;;;;;;;4.70;1.40;;;27.40;45.30;;;;;;5029273;28;20061;-80
2022/09/02 08:04:23;;;;;;;3.90;1.55;;;27.70;44.70;;;;;;5039607;28;20029;-86
2022/09/02 08:06:51;;;;;;;6.07;1.50;;;27.50;44.90;;;;;;5035028;28;20127;-78
2022/09/02 08:09:17;;;;;;;3.00;1.30;;;26.40;45.30;;;;;;5053125;28;20037;-79
2022/09/02 08:11:46;;;;;;;3.30;1.42;;;26.50;46.30;;;;;;5044579;28;20100;-86
2022/09/02 08:14:17;;;;;;;3.97;1.40;;;26.80;45.60;;;;;;5036617;28;20061;-83
2022/09/02 08:16:45;;;;;;;3.63;1.50;;;26.90;45.10;;;;;;5052936;28;20017;-83
2022/09/02 08:19:12;;;;;;;3.50;1.30;;;27.10;46.20;;;;;;5036090;28;20021;-83
2022/09/02 08:21:38;;;;;;;2.70;1.40;;;27.10;44.80;;;;;;5035782;28;20120;-85
2022/09/02 08:24:04;;;;;;;1.98;1.30;;;27.40;45.60;;;;;;5053978;28;20068;-80
2022/09/02 08:26:30;;;;;;;2.42;1.50;;;27.50;45.80;;;;;;5036823;28;20108;-81
2022/09/02 08:28:55;;;;;;;2.92;1.50;;;27.60;45.80;;;;;;5036925;28;20425;-82
2022/09/02 08:31:21;;;;;;;3.10;1.40;;;27.80;45.50;;;;;;5042533;28;20472;-86
2022/09/02 08:33:47;;;;;;;3.47;1.38;;;27.70;45.80;;;;;;5017042;28;20480;-84
2022/09/02 08:36:14;;;;;;;3.45;1.58;;;27.60;45.40;;;;;;5034312;28;20027;-83
2022/09/02 08:38:41;;;;;;;4.75;1.60;;;27.80;45.70;;;;;;5047829;28;20498;-81
2022/09/02 08:41:41;;;;;;;2.58;1.33;;;27.50;45.80;;;;;;5035361;28;20044;-82
2022/09/02 08:44:09;;;;;;;3.05;1.60;;;27.70;45.90;;;;;;5054681;28;20078;-82
2022/09/02 08:46:35;;;;;;;4.35;1.60;;;27.90;45.90;;;;;;5036471;28;20071;-82
2022/09/02 08:49:07;;;;;;;3.10;1.52;;;28.10;45.40;;;;;;5036548;28;20033;-85
2022/09/02 08:51:50;;;;;;;4.65;1.50;;;28.10;46.10;;;;;;5054046;28;20037;-90
2022/09/02 08:54:44;;;;;;;3.40;1.75;;;28.10;45.20;;;;;;5036623;28;20025;-82
2022/09/02 08:57:10;;;;;;;3.58;1.60;;;27.40;45.10;;;;;;5054442;28;20036;-83
2022/09/02 08:59:37;;;;;;;3.28;1.55;;;26.50;47.00;;;;;;5036225;28;20025;-91
2022/09/02 09:02:21;;;;;;;;;;;26.40;46.80;;;;;;3991975;28;10000722;-84
2022/09/02 09:05:09;;;;;;;4.30;1.70;;;26.70;47.10;;;;;;5032572;28;19908;-83
2022/09/02 09:07:58;;;;;;;3.55;1.65;;;27.50;46.50;;;;;;5053998;28;20021;-83
2022/09/02 09:10:59;;;;;;;3.50;1.70;;;28.00;46.50;;;;;;5053345;28;20480;-83
2022/09/02 09:14:01;;;;;;;3.15;1.60;;;28.40;45.70;;;;;;5053483;28;20013;-87
2022/09/02 09:16:56;;;;;;;5.32;1.60;;;28.10;45.00;;;;;;5035670;28;20395;-80
2022/09/02 09:19:44;;;;;;;3.45;1.67;;;27.70;45.50;;;;;;5035653;28;20049;-81
2022/09/02 09:22:13;;;;;;;5.15;1.73;;;27.90;45.50;;;;;;5054088;28;20027;-82
2022/09/02 09:24:44;;;;;;;3.05;1.60;;;28.10;46.30;;;;;;5037417;28;20115;-83
2022/09/02 09:27:16;;;;;;;5.30;1.60;;;27.90;46.30;;;;;;5037210;28;20457;-82
2022/09/02 09:29:42;;;;;;;5.05;1.70;;;27.80;45.70;;;;;;5036602;28;20017;-83
2022/09/02 09:32:28;;;;;;;4.55;1.70;;;28.10;46.60;;;;;;5035972;28;20032;-85
2022/09/02 09:35:00;;;;;;;5.18;1.50;;;28.40;46.00;;;;;;5036428;28;20056;-81
2022/09/02 09:37:30;;;;;;;3.92;1.80;;;28.30;46.00;;;;;;5035605;28;20025;-84
2022/09/02 09:39:56;;;;;;;3.33;1.80;;;28.40;44.80;;;;;;5036021;28;20060;-79
2022/09/02 09:42:36;;;;;;;3.80;1.88;;;28.40;44.40;;;;;;5035898;28;20123;-87
2022/09/02 09:45:33;;;;;;;28.10;7.78;;;28.40;45.50;;;;;;5036137;28;20495;-83
2022/09/02 09:48:21;;;;;;;33.33;5.63;;;28.20;45.80;;;;;;5035376;28;20476;-78
2022/09/02 09:51:09;;;;;;;118.50;18.85;;;28.20;45.10;;;;;;5052842;28;20040;-80
2022/09/02 09:53:36;;;;;;;5.45;2.10;;;28.40;46.10;;;;;;5020106;28;20029;-82
2022/09/02 09:56:05;;;;;;;4.60;1.85;;;28.80;45.50;;;;;;5035822;28;20021;-83
2022/09/02 09:58:40;;;;;;;3.75;2.03;;;28.90;45.10;;;;;;5035857;28;20067;-82
2022/09/02 10:01:28;;;;;;;3.70;1.92;;;29.00;45.30;;;;;;5035497;28;20052;-84
2022/09/02 10:03:56;;;;;;;4.40;2.10;;;29.20;44.30;;;;;;5035849;28;20029;-82
2022/09/02 10:06:30;;;;;;;5.47;2.00;;;29.20;44.60;;;;;;5035555;28;20165;-83
2022/09/02 10:09:14;;;;;;;3.85;1.90;;;29.50;44.90;;;;;;5037462;28;20475;-84
2022/09/02 10:11:57;;;;;;;5.32;1.90;;;29.50;44.00;;;;;;5035703;28;20028;-84
2022/09/02 10:14:25;;;;;;;16.52;4.65;;;28.80;44.10;;;;;;5035588;28;20048;-81
2022/09/02 10:17:20;;;;;;;5.70;2.58;;;28.80;46.00;;;;;;5035910;28;20108;-85
2022/09/02 10:20:19;;;;;;;4.57;2.53;;;29.00;45.10;;;;;;5035580;28;20051;-83
2022/09/02 10:23:00;;;;;;;3.60;2.10;;;29.30;44.90;;;;;;5035421;28;20028;-88
2022/09/02 10:25:35;;;;;;;3.63;1.75;;;29.50;44.70;;;;;;5035921;28;20099;-86
2022/09/02 10:28:11;;;;;;;3.65;1.85;;;29.00;44.50;;;;;;5035606;28;20033;-81
2022/09/02 10:31:07;;;;;;;4.90;1.80;;;29.10;45.10;;;;;;5035263;28;20061;-82
2022/09/02 10:33:51;;;;;;;7.03;2.65;;;29.50;45.00;;;;;;5035998;28;20024;-88
2022/09/02 10:36:45;;;;;;;6.40;2.40;;;29.70;44.90;;;;;;5035750;28;20036;-84
2022/09/02 10:39:32;;;;;;;10.90;3.30;;;29.00;45.00;;;;;;5034248;28;20021;-91
2022/09/02 10:42:11;;;;;;;8.90;3.00;;;29.10;45.60;;;;;;5038513;28;20036;-83
2022/09/02 10:45:26;;;;;;;6.80;2.55;;;29.20;45.70;;;;;;5038601;28;20017;-90
2022/09/02 10:48:14;;;;;;;13.75;3.97;;;29.40;46.30;;;;;;5030253;28;20032;-91
2022/09/02 10:50:46;;;;;;;6.53;2.50;;;29.40;45.00;;;;;;5039040;28;20091;-87
2022/09/02 10:53:34;;;;;;;4.40;2.00;;;29.80;44.30;;;;;;5038757;28;20025;-87
2022/09/02 10:56:08;;;;;;;4.88;1.92;;;30.10;45.30;;;;;;5038804;28;20481;-83
2022/09/02 10:59:08;;;;;;;5.32;2.20;;;30.20;45.40;;;;;;5039409;28;20478;-90
2022/09/02 11:01:53;;;;;;;5.57;2.03;;;29.70;43.40;;;;;;5056693;28;20041;-82
2022/09/02 11:04:46;;;;;;;3.40;2.10;;;29.50;45.90;;;;;;5038955;28;20025;-85
2022/09/02 11:07:18;;;;;;;5.03;2.08;;;29.60;44.70;;;;;;5039139;28;20103;-89
2022/09/02 11:09:59;;;;;;;5.22;2.10;;;29.50;44.30;;;;;;5039258;28;20480;-87
2022/09/02 11:12:43;;;;;;;3.55;2.10;;;29.10;44.60;;;;;;5038551;28;20079;-81
2022/09/02 11:15:18;;;;;;;5.78;2.10;;;29.20;44.70;;;;;;5038229;28;20025;-87
2022/09/02 11:18:12;;;;;;;4.28;2.30;;;29.40;44.40;;;;;;5037616;28;20037;-82
2022/09/02 11:20:43;;;;;;;4.40;2.45;;;29.40;44.00;;;;;;5038209;28;20041;-81
2022/09/02 11:23:31;;;;;;;4.22;2.38;;;29.90;44.60;;;;;;5038182;28;20357;-83
2022/09/02 11:26:10;;;;;;;3.60;2.05;;;30.00;45.20;;;;;;5056277;28;20025;-81
2022/09/02 11:28:58;;;;;;;5.70;2.55;;;29.80;44.60;;;;;;5055754;28;20028;-82
2022/09/02 11:31:29;;;;;;;4.45;2.10;;;29.70;43.70;;;;;;5037799;28;20037;-81
2022/09/02 11:34:12;;;;;;;;;;;29.90;43.80;;;;;;5039897;28;20029;-87
2022/09/02 11:36:40;;;;;;;4.45;2.30;;;29.70;44.60;;;;;;5038477;28;19905;-82
2022/09/02 11:39:15;;;;;;;4.30;2.20;;;29.80;44.10;;;;;;5038605;28;20025;-83
2022/09/02 11:41:44;;;;;;;4.40;2.10;;;30.20;45.00;;;;;;5056274;28;20029;-83
2022/09/02 11:44:29;;;;;;;3.75;2.22;;;30.10;44.50;;;;;;5037670;28;20025;-82
2022/09/02 11:47:15;;;;;;;3.42;2.00;;;30.30;44.10;;;;;;5037458;28;20025;-82
2022/09/02 11:49:47;;;;;;;6.90;2.20;;;30.50;44.40;;;;;;5038053;28;20396;-90
2022/09/02 11:52:39;;;;;;;4.00;1.83;;;30.20;45.30;;;;;;5036646;28;20025;-84
2022/09/02 11:55:34;;;;;;;5.55;2.13;;;29.40;44.70;;;;;;5037991;28;20029;-86
2022/09/02 11:58:01;;;;;;;4.03;1.90;;;28.90;46.20;;;;;;5030162;28;20056;-86
2022/09/02 12:00:31;;;;;;;4.60;2.20;;;29.10;45.50;;;;;;5038180;28;20033;-86
2022/09/02 12:03:12;;;;;;;3.17;2.00;;;29.20;45.90;;;;;;5038264;28;20396;-85
2022/09/02 12:05:38;;;;;;;3.83;1.83;;;28.90;45.50;;;;;;5037781;28;20044;-88
2022/09/02 12:08:12;;;;;;;4.82;2.17;;;28.50;45.60;;;;;;5038066;28;20070;-81
2022/09/02 12:10:48;;;;;;;5.35;2.15;;;28.20;45.60;;;;;;5055322;28;20021;-83
2022/09/02 12:13:32;;;;;;;4.53;2.10;;;28.20;48.60;;;;;;5037247;28;20032;-83
2022/09/02 12:16:15;;;;;;;4.15;2.10;;;28.80;46.60;;;;;;5055049;28;20021;-85
2022/09/02 12:18:53;;;;;;;6.10;2.17;;;29.50;45.10;;;;;;5036741;28;20044;-82
2022/09/02 12:21:24;;;;;;;4.80;1.92;;;29.60;44.50;;;;;;5036824;28;20036;-79
2022/09/02 12:23:55;;;;;;;3.10;1.92;;;29.60;44.30;;;;;;5036984;28;20036;-83
2022/09/02 12:26:27;;;;;;;5.47;2.30;;;29.70;45.20;;;;;;5054469;28;20024;-81
2022/09/02 12:29:08;;;;;;;3.88;2.13;;;29.90;43.60;;;;;;5036625;28;20116;-83
2022/09/02 12:31:41;;;;;;;4.00;2.00;;;30.10;43.70;;;;;;5054460;28;20037;-87
2022/09/02 12:34:28;;;;;;;4.53;2.20;;;30.20;44.60;;;;;;5055775;28;20021;-83
2022/09/02 12:36:56;;;;;;;4.43;1.88;;;30.00;45.10;;;;;;5031392;28;20122;-86
2022/09/02 12:39:22;;;;;;;4.03;1.90;;;30.20;45.10;;;;;;5056465;28;20056;-89
2022/09/02 12:41:57;;;;;;;4.30;2.10;;;30.20;44.40;;;;;;5039054;28;20103;-89
2022/09/02 12:44:35;;;;;;;3.55;2.00;;;29.30;44.40;;;;;;5038513;28;20025;-84
2022/09/02 12:47:07;;;;;;;4.35;2.03;;;28.70;46.80;;;;;;5038824;28;20090;-91
2022/09/02 12:49:37;;;;;;;3.45;1.95;;;28.10;45.40;;;;;;5055664;28;20040;-80
2022/09/02 12:52:05;;;;;;;;;;;28.30;46.20;;;;;;5056775;28;20388;-84
2022/09/02 12:54:37;;;;;;;4.75;2.00;;;28.80;46.40;;;;;;5038573;28;19948;-86
2022/09/02 12:57:05;;;;;;;4.75;2.15;;;29.20;46.40;;;;;;5037990;28;20036;-83
2022/09/02 12:59:33;;;;;;;3.65;2.08;;;29.60;45.30;;;;;;5037938;28;20029;-83
2022/09/02 13:02:20;;;;;;;4.28;2.40;;;29.90;44.80;;;;;;5037382;28;20037;-81
2022/09/02 13:05:05;;;;;;;3.60;1.90;;;30.50;44.40;;;;;;5036699;28;20017;-88
2022/09/02 13:07:58;;;;;;;6.57;2.20;;;30.70;43.50;;;;;;5055021;28;20013;-80
2022/09/02 13:10:58;;;;;;;3.40;2.00;;;30.50;44.70;;;;;;5037270;28;20422;-82